Gabriella — OJHP — position and weather

sailwx.info

Track history (hours):
 
Tides and Currents Weather Stations Pressure Air Temp Water Temp Dewpoint Dewpoint Depression Visibility Wind Speed Wind Dir Waves Ship Positions

Gabriella

Last reported at 2018-Apr-15 16:52 UTC. Time now 2018-Apr-25 12:48 UTC.
Position N 60°03' E 021°10'.
Warning: this ship's position is 9 days out of date.

Length 172 m; draft 6.5 m.

Type: Passenger vessel. MMSI: 230361000.

Date/timePositionNaut miles runAvg speedWind from/ knotsBaromVisibWave heightAir tempDewpointWater temp
2018-Apr-15 16:52N 60°03' E 021°10'617.0
2018-Apr-15 16:30N 59°57' E 021°12'918.2
2018-Apr-15 16:00N 59°49' E 021°20'714.7
2018-Apr-15 15:30N 59°42' E 021°21'917.8
2018-Apr-15 15:00N 59°35' E 021°33'1018.4
2018-Apr-15 14:27N 59°32' E 021°52'2220.1
2018-Apr-15 13:23N 59°35' E 022°34'1620.1
2018-Apr-15 12:34N 59°39' E 023°06'120.1
2018-Apr-15 12:30N 59°39' E 023°08'1020.1
2018-Apr-15 12:00N 59°41' E 023°28'1020.3
2018-Apr-15 11:30N 59°44' E 023°47'1220.1
2018-Apr-15 10:54N 59°48' E 024°10'820.6
2018-Apr-15 10:30N 59°51' E 024°25'1020.7
2018-Apr-15 10:00N 59°56' E 024°43'1019.5
2018-Apr-15 09:30N 60°03' E 024°57'713.7
2018-Apr-15 09:00N 60°10' E 024°58'0 0.2
2018-Apr-15 08:28N 60°10' E 024°58'0 0.0
2018-Apr-15 07:58N 60°10' E 024°58'0 0.0
2018-Apr-15 07:28N 60°10' E 024°58'0 0.1
2018-Apr-15 06:59N 60°10' E 024°58'510.2
2018-Apr-15 06:31N 60°05' E 024°58'816.7
2018-Apr-15 06:00N 59°58' E 024°50'918.6
2018-Apr-15 05:30N 59°53' E 024°34'918.5
2018-Apr-15 05:00N 59°49' E 024°17'918.6
2018-Apr-15 04:30N 59°47' E 023°59'918.6
2018-Apr-15 04:00N 59°44' E 023°41'918.6
2018-Apr-15 03:30N 59°42' E 023°23'918.6
2018-Apr-15 03:00N 59°40' E 023°06'918.5
2018-Apr-15 02:30N 59°38' E 022°48'918.5
2018-Apr-15 02:00N 59°36' E 022°30'918.5
2018-Apr-15 01:30N 59°34' E 022°12'918.5
2018-Apr-15 01:00N 59°32' E 021°54'918.6
2018-Apr-15 00:30N 59°33' E 021°35'918.6
2018-Apr-15 00:00N 59°35' E 021°18'1018.6
2018-Apr-14 23:27N 59°37' E 020°58'3418.2
2018-Apr-14 21:35N 59°53' E 019°59'218.4
2018-Apr-14 21:30N 59°55' E 019°58'917.5
2018-Apr-14 21:00N 60°03' E 019°54'2 4.4
2018-Apr-14 20:27N 60°05' E 019°56'714.7
2018-Apr-14 20:00N 59°60' E 019°49'917.3
2018-Apr-14 19:30N 59°54' E 019°37'917.2
2018-Apr-14 19:00N 59°47' E 019°25'816.8
2018-Apr-14 18:30N 59°44' E 019°10'816.2
2018-Apr-14 18:00N 59°40' E 018°56'510.5
2018-Apr-14 17:30N 59°36' E 018°48'611.4
2018-Apr-14 16:58N 59°33' E 018°37'5 9.8
2018-Apr-14 16:26N 59°30' E 018°29'511.6
2018-Apr-14 16:01N 59°26' E 018°23'510.1
2018-Apr-14 15:30N 59°21' E 018°26'510.2
2018-Apr-14 15:00N 59°22' E 018°16'510.6
2018-Apr-14 14:30N 59°19' E 018°07'1 1.3
2018-Apr-14 14:00N 59°19' E 018°06'0 0.0
2018-Apr-14 13:30N 59°19' E 018°06'0 0.0
2018-Apr-14 13:00N 59°19' E 018°06'0 0.0
2018-Apr-14 12:30N 59°19' E 018°06'0 0.0
2018-Apr-14 12:00N 59°19' E 018°06'0 0.0
2018-Apr-14 11:30N 59°19' E 018°06'0 0.0
2018-Apr-14 11:00N 59°19' E 018°06'0 0.2
2018-Apr-14 10:30N 59°19' E 018°06'0 0.0
2018-Apr-14 10:00N 59°19' E 018°06'0 0.0
2018-Apr-14 09:30N 59°19' E 018°06'0 0.0
2018-Apr-14 09:00N 59°19' E 018°06'0 0.0
2018-Apr-14 08:30N 59°19' E 018°06'0 0.1
2018-Apr-14 08:00N 59°19' E 018°06'3 6.2
2018-Apr-14 07:30N 59°20' E 018°12'611.4
2018-Apr-14 07:00N 59°22' E 018°22'3 5.7
2018-Apr-14 06:30N 59°24' E 018°27'4 7.6
2018-Apr-14 06:00N 59°28' E 018°26'610.5
2018-Apr-14 05:25N 59°32' E 018°34'410.4
2018-Apr-14 05:00N 59°35' E 018°41'612.1
2018-Apr-14 04:30N 59°38' E 018°51'611.2
2018-Apr-14 04:01N 59°41' E 018°60'815.9
2018-Apr-14 03:30N 59°45' E 019°14'815.8
2018-Apr-14 03:00N 59°49' E 019°27'816.1
2018-Apr-14 02:30N 59°55' E 019°38'816.2
2018-Apr-14 02:00N 60°00' E 019°50'611.6
2018-Apr-14 01:31N 60°05' E 019°56'3 5.1
2018-Apr-14 01:01N 60°03' E 019°54'916.6
2018-Apr-14 00:29N 59°55' E 019°58'816.8
2018-Apr-14 00:01N 59°49' E 020°09'917.3
2018-Apr-13 23:30N 59°45' E 020°24'2017.1
2018-Apr-13 22:19N 59°38' E 021°02'517.3
2018-Apr-13 22:00N 59°36' E 021°12'917.3
2018-Apr-13 21:30N 59°34' E 021°29'1117.3
2018-Apr-13 20:53N 59°32' E 021°49'717.3
2018-Apr-13 20:30N 59°33' E 022°02'917.4
2018-Apr-13 20:00N 59°34' E 022°19'917.4
2018-Apr-13 19:30N 59°36' E 022°36'917.4
2018-Apr-13 19:01N 59°37' E 022°53'917.4
2018-Apr-13 18:31N 59°39' E 023°10'917.3
2018-Apr-13 18:00N 59°41' E 023°27'917.3
2018-Apr-13 17:30N 59°44' E 023°43'917.3
2018-Apr-13 17:00N 59°46' E 023°59'917.3
2018-Apr-13 16:30N 59°49' E 024°16'917.3
2018-Apr-13 16:00N 59°53' E 024°32'817.3
2018-Apr-13 15:30N 59°57' E 024°46'816.4
2018-Apr-13 15:00N 60°03' E 024°57'713.4
2018-Apr-13 14:30N 60°10' E 024°58'0 0.7
2018-Apr-13 13:59N 60°10' E 024°58'0 0.0
2018-Apr-13 13:25N 60°10' E 024°58'0 0.0
2018-Apr-13 12:58N 60°10' E 024°58'0 0.0
2018-Apr-13 12:28N 60°10' E 024°58'0 0.0
2018-Apr-13 11:58N 60°10' E 024°58'0 0.0
2018-Apr-13 11:28N 60°10' E 024°58'0 0.0
2018-Apr-13 10:58N 60°10' E 024°58'0 0.0
2018-Apr-13 10:28N 60°10' E 024°58'0 0.0
2018-Apr-13 09:58N 60°10' E 024°58'0 0.0
2018-Apr-13 09:28N 60°10' E 024°58'0 0.0
2018-Apr-13 08:58N 60°10' E 024°58'0 0.0
2018-Apr-13 08:28N 60°10' E 024°58'0 0.0
2018-Apr-13 07:58N 60°10' E 024°58'0 0.0
2018-Apr-13 07:28N 60°10' E 024°58'0 0.1
2018-Apr-13 07:00N 60°10' E 024°58'611.7
2018-Apr-13 06:30N 60°04' E 024°58'816.8
2018-Apr-13 06:00N 59°57' E 024°48'918.3
2018-Apr-13 05:30N 59°53' E 024°32'918.4
2018-Apr-13 05:00N 59°49' E 024°15'1718.6
2018-Apr-13 04:06N 59°44' E 023°43'1318.6
2018-Apr-13 03:26N 59°41' E 023°19'818.6
2018-Apr-13 03:00N 59°39' E 023°04'918.6
2018-Apr-13 02:30N 59°37' E 022°46'918.6
2018-Apr-13 02:00N 59°34' E 022°28'918.6
2018-Apr-13 01:30N 59°31' E 022°11'918.4
2018-Apr-13 01:00N 59°32' E 021°53'918.5
2018-Apr-13 00:30N 59°33' E 021°35'918.5
2018-Apr-13 00:00N 59°35' E 021°17'1118.5
2018-Apr-12 23:26N 59°37' E 020°56'3318.1
2018-Apr-12 21:38N 59°52' E 019°60'918.3
2018-Apr-12 21:07N 60°01' E 019°54'315.9
2018-Apr-12 20:57N 60°04' E 019°55'1 2.3
2018-Apr-12 20:21N 60°05' E 019°56'412.8
2018-Apr-12 20:01N 60°01' E 019°52'1019.3
2018-Apr-12 19:31N 59°55' E 019°38'1019.3
2018-Apr-12 19:01N 59°48' E 019°25'918.7
2018-Apr-12 18:31N 59°43' E 019°08'815.9
2018-Apr-12 18:00N 59°39' E 018°55'611.2
2018-Apr-12 17:30N 59°36' E 018°46'711.0
2018-Apr-12 16:51N 59°32' E 018°34'4 9.9
2018-Apr-12 16:29N 59°30' E 018°28'510.7
2018-Apr-12 16:00N 59°25' E 018°24'3 6.7
2018-Apr-12 15:30N 59°22' E 018°24'510.3
2018-Apr-12 15:00N 59°21' E 018°14'5 9.4
2018-Apr-12 14:31N 59°19' E 018°06'0 0.0
2018-Apr-12 14:00N 59°19' E 018°06'0 0.0
2018-Apr-12 13:30N 59°19' E 018°06'0 0.0
2018-Apr-12 13:00N 59°19' E 018°06'0 0.0
2018-Apr-12 12:30N 59°19' E 018°06'0 0.0
2018-Apr-12 12:00N 59°19' E 018°06'0 0.0
2018-Apr-12 11:30N 59°19' E 018°06'0 0.0
2018-Apr-12 11:00N 59°19' E 018°06'0 0.0
2018-Apr-12 10:30N 59°19' E 018°06'0 0.0
2018-Apr-12 10:00N 59°19' E 018°06'0 0.0
2018-Apr-12 09:31N 59°19' E 018°06'0 0.0
2018-Apr-12 09:00N 59°19' E 018°06'0 0.0
2018-Apr-12 08:30N 59°19' E 018°06'0 0.0
2018-Apr-12 08:00N 59°19' E 018°06'3 5.5
2018-Apr-12 07:31N 59°20' E 018°11'611.5
2018-Apr-12 07:00N 59°23' E 018°21'3 6.3
2018-Apr-12 06:30N 59°24' E 018°27'4 8.5
2018-Apr-12 06:00N 59°28' E 018°26'610.5
2018-Apr-12 05:25N 59°32' E 018°34'410.5
2018-Apr-12 05:01N 59°35' E 018°41'612.2
2018-Apr-12 04:30N 59°38' E 018°52'510.8
2018-Apr-12 04:00N 59°41' E 018°60'815.4
2018-Apr-12 03:29N 59°45' E 019°14'715.2
2018-Apr-12 03:00N 59°50' E 019°25'815.6
2018-Apr-12 02:30N 59°55' E 019°37'815.5
2018-Apr-12 02:00N 59°60' E 019°49'713.3
2018-Apr-12 01:30N 60°05' E 019°56'3 6.0
2018-Apr-12 01:00N 60°03' E 019°53'1017.1
2018-Apr-12 00:25N 59°53' E 019°59'3617.2
2018-Apr-11 22:20N 59°37' E 021°03'617.5
2018-Apr-11 22:00N 59°36' E 021°14'917.5
2018-Apr-11 21:30N 59°34' E 021°31'1117.5
2018-Apr-11 20:53N 59°32' E 021°52'717.6
2018-Apr-11 20:30N 59°33' E 022°05'917.6
2018-Apr-11 20:00N 59°35' E 022°22'917.7
2018-Apr-11 19:31N 59°36' E 022°39'917.6
2018-Apr-11 19:00N 59°38' E 022°56'1017.6
2018-Apr-11 18:28N 59°40' E 023°15'817.6
2018-Apr-11 18:00N 59°42' E 023°30'917.5
2018-Apr-11 17:30N 59°44' E 023°47'917.5
2018-Apr-11 17:00N 59°47' E 024°03'917.5
2018-Apr-11 16:30N 59°49' E 024°20'917.5
2018-Apr-11 16:00N 59°54' E 024°35'917.5
2018-Apr-11 15:31N 59°58' E 024°50'816.7
2018-Apr-11 15:00N 60°05' E 024°58'5 9.2
2018-Apr-11 14:31N 60°10' E 024°58'0 0.0
2018-Apr-11 13:58N 60°10' E 024°58'0 0.0
2018-Apr-11 13:28N 60°10' E 024°58'0 0.0
2018-Apr-11 12:58N 60°10' E 024°58'0 0.0
2018-Apr-11 12:28N 60°10' E 024°58'0 0.0
2018-Apr-11 11:58N 60°10' E 024°58'0 0.0
2018-Apr-11 11:28N 60°10' E 024°58'0 0.0
2018-Apr-11 10:58N 60°10' E 024°58'0 0.0
2018-Apr-11 10:28N 60°10' E 024°58'0 0.0
2018-Apr-11 09:55N 60°10' E 024°58'0 0.0
2018-Apr-11 09:28N 60°10' E 024°58'0 0.0
2018-Apr-11 08:58N 60°10' E 024°58'0 0.0
2018-Apr-11 08:28N 60°10' E 024°58'0 0.0
2018-Apr-11 07:58N 60°10' E 024°58'0 0.0
2018-Apr-11 07:28N 60°10' E 024°58'0 0.1
2018-Apr-11 07:00N 60°10' E 024°58'4 8.5
2018-Apr-11 06:31N 60°06' E 024°55'816.2
2018-Apr-11 06:01N 60°03' E 024°40'815.3
2018-Apr-11 05:30N 59°58' E 024°29'815.9
2018-Apr-11 05:00N 59°55' E 024°14'918.1
2018-Apr-11 04:30N 59°50' E 023°60'918.7
2018-Apr-11 04:00N 59°46' E 023°43'918.7
2018-Apr-11 03:30N 59°42' E 023°25'918.7
2018-Apr-11 03:00N 59°40' E 023°07'918.7
2018-Apr-11 02:30N 59°38' E 022°49'918.7
2018-Apr-11 02:00N 59°36' E 022°31'918.7
2018-Apr-11 01:30N 59°34' E 022°13'918.7
2018-Apr-11 01:00N 59°32' E 021°55'918.9
2018-Apr-11 00:30N 59°33' E 021°37'918.9
2018-Apr-11 00:00N 59°35' E 021°18'1019.0
2018-Apr-10 23:27N 59°37' E 020°58'3318.3
2018-Apr-10 21:38N 59°52' E 019°60'218.6
2018-Apr-10 21:30N 59°54' E 019°58'917.8
2018-Apr-10 21:00N 60°03' E 019°54'2 4.9
2018-Apr-10 20:30N 60°06' E 019°56'713.2
2018-Apr-10 20:00N 59°60' E 019°49'917.2
2018-Apr-10 19:30N 59°54' E 019°37'917.2
2018-Apr-10 19:00N 59°47' E 019°25'917.0
2018-Apr-10 18:30N 59°44' E 019°10'816.2
2018-Apr-10 18:00N 59°40' E 018°56'510.9
2018-Apr-10 17:30N 59°36' E 018°47'611.7
2018-Apr-10 16:59N 59°33' E 018°37'5 9.9
2018-Apr-10 16:28N 59°30' E 018°29'511.6
2018-Apr-10 16:00N 59°26' E 018°23'4 8.8
2018-Apr-10 15:30N 59°21' E 018°25'510.2
2018-Apr-10 15:00N 59°21' E 018°15'510.2
2018-Apr-10 14:30N 59°19' E 018°07'0 0.7
2018-Apr-10 13:59N 59°19' E 018°06'0 0.0
2018-Apr-10 13:26N 59°19' E 018°06'0 0.0
2018-Apr-10 12:59N 59°19' E 018°06'0 0.0
2018-Apr-10 12:29N 59°19' E 018°06'0 0.0
2018-Apr-10 11:59N 59°19' E 018°06'0 0.0
2018-Apr-10 11:29N 59°19' E 018°06'0 0.0
2018-Apr-10 10:59N 59°19' E 018°06'0 0.0
2018-Apr-10 10:29N 59°19' E 018°06'0 0.0
2018-Apr-10 09:59N 59°19' E 018°06'0 0.0
2018-Apr-10 09:29N 59°19' E 018°06'0 0.0
2018-Apr-10 08:59N 59°19' E 018°06'0 0.0
2018-Apr-10 08:29N 59°19' E 018°06'0 0.0
2018-Apr-10 08:00N 59°19' E 018°06'3 5.6
2018-Apr-10 07:30N 59°20' E 018°11'611.4
2018-Apr-10 07:00N 59°23' E 018°21'3 6.2
2018-Apr-10 06:30N 59°24' E 018°27'4 8.0
2018-Apr-10 06:00N 59°28' E 018°26'610.5
2018-Apr-10 05:24N 59°32' E 018°34'410.6
2018-Apr-10 05:00N 59°35' E 018°41'612.1
2018-Apr-10 04:30N 59°38' E 018°51'510.9
2018-Apr-10 04:00N 59°41' E 018°60'815.2
2018-Apr-10 03:31N 59°44' E 019°13'815.3
2018-Apr-10 03:01N 59°48' E 019°27'815.5
2018-Apr-10 02:30N 59°54' E 019°37'1410.3
2018-Apr-10 01:08N 60°04' E 019°56'215.5
2018-Apr-10 01:00N 60°03' E 019°53'4316.1
2018-Apr-09 22:18N 59°37' E 021°03'517.4
2018-Apr-09 22:01N 59°36' E 021°13'917.4
2018-Apr-09 21:30N 59°34' E 021°30'1317.4
2018-Apr-09 20:47N 59°32' E 021°54'3317.6
2018-Apr-09 18:55N 59°38' E 022°58'717.6
2018-Apr-09 18:30N 59°40' E 023°12'917.5
2018-Apr-09 18:01N 59°42' E 023°29'917.4
2018-Apr-09 17:30N 59°46' E 023°44'917.4
2018-Apr-09 17:00N 59°50' E 023°60'816.9
2018-Apr-09 16:30N 59°55' E 024°13'815.2
2018-Apr-09 15:58N 59°58' E 024°28'714.5
2018-Apr-09 15:31N 60°02' E 024°38'815.6
2018-Apr-09 15:00N 60°05' E 024°53'510.3
2018-Apr-09 14:31N 60°10' E 024°58'0 0.3
2018-Apr-09 14:00N 60°10' E 024°58'0 0.0
2018-Apr-09 13:30N 60°10' E 024°58'0 0.0
2018-Apr-09 13:00N 60°10' E 024°58'0 0.0
2018-Apr-09 12:30N 60°10' E 024°58'0 0.0
2018-Apr-09 12:00N 60°10' E 024°58'0 0.0
2018-Apr-09 11:30N 60°10' E 024°58'0 0.0
2018-Apr-09 10:57N 60°10' E 024°58'0 0.0
2018-Apr-09 10:30N 60°10' E 024°58'0 0.0
2018-Apr-09 10:00N 60°10' E 024°58'0 0.0
2018-Apr-09 09:30N 60°10' E 024°58'0 0.0
2018-Apr-09 09:00N 60°10' E 024°58'0 0.0
2018-Apr-09 08:27N 60°10' E 024°58'0 0.0
2018-Apr-09 08:00N 60°10' E 024°58'0 0.0
2018-Apr-09 07:30N 60°10' E 024°58'0 0.0
2018-Apr-09 07:00N 60°10' E 024°58'2 4.7
2018-Apr-09 06:31N 60°08' E 024°59'815.0
2018-Apr-09 06:01N 60°05' E 024°45'916.7
2018-Apr-09 05:29N 59°59' E 024°32'714.2
2018-Apr-09 05:00N 59°56' E 024°20'917.9
2018-Apr-09 04:30N 59°51' E 024°05'918.8
2018-Apr-09 04:00N 59°47' E 023°48'918.8
2018-Apr-09 03:30N 59°43' E 023°31'918.9
2018-Apr-09 03:00N 59°41' E 023°13'1118.9
2018-Apr-09 02:27N 59°38' E 022°53'818.9
2018-Apr-09 02:00N 59°37' E 022°37'918.9
2018-Apr-09 01:30N 59°34' E 022°18'1019.0
2018-Apr-09 01:00N 59°32' E 022°00'918.9
2018-Apr-09 00:31N 59°32' E 021°42'1019.0
2018-Apr-09 00:00N 59°34' E 021°23'1019.0
2018-Apr-08 23:30N 59°36' E 021°05'3818.5
2018-Apr-08 21:28N 59°54' E 019°58'918.6
2018-Apr-08 20:59N 60°02' E 019°53'3 6.7
2018-Apr-08 20:28N 60°06' E 019°55'614.0
2018-Apr-08 20:00N 59°60' E 019°49'917.5
2018-Apr-08 19:30N 59°54' E 019°37'917.2
2018-Apr-08 19:01N 59°47' E 019°25'817.0
2018-Apr-08 18:30N 59°44' E 019°10'816.2
2018-Apr-08 18:00N 59°40' E 018°56'510.8
2018-Apr-08 17:30N 59°36' E 018°47'811.1
2018-Apr-08 16:47N 59°32' E 018°34'4 9.9
2018-Apr-08 16:25N 59°30' E 018°28'511.5
2018-Apr-08 16:00N 59°26' E 018°23'5 9.2
2018-Apr-08 15:30N 59°21' E 018°26'510.0
2018-Apr-08 15:01N 59°22' E 018°16'510.5
2018-Apr-08 14:30N 59°19' E 018°07'1 1.0
2018-Apr-08 14:00N 59°19' E 018°06'0 0.0
2018-Apr-08 13:27N 59°19' E 018°06'0 0.0
2018-Apr-08 13:00N 59°19' E 018°06'0 0.0
2018-Apr-08 12:27N 59°19' E 018°06'0 0.0
2018-Apr-08 12:00N 59°19' E 018°06'0 0.0
2018-Apr-08 11:30N 59°19' E 018°06'0 0.0
2018-Apr-08 11:00N 59°19' E 018°06'0 0.0
2018-Apr-08 10:30N 59°19' E 018°06'0 0.0
2018-Apr-08 10:00N 59°19' E 018°06'0 0.0
2018-Apr-08 09:30N 59°19' E 018°06'0 0.0
2018-Apr-08 09:00N 59°19' E 018°06'0 0.0
2018-Apr-08 08:27N 59°19' E 018°06'0 0.0
2018-Apr-08 08:00N 59°19' E 018°06'3 6.2
2018-Apr-08 07:30N 59°20' E 018°12'611.4
2018-Apr-08 07:00N 59°22' E 018°22'3 5.7
2018-Apr-08 06:31N 59°24' E 018°27'4 7.6
2018-Apr-08 06:00N 59°28' E 018°26'610.7
2018-Apr-08 05:29N 59°32' E 018°33'510.3
2018-Apr-08 05:00N 59°35' E 018°41'612.0
2018-Apr-08 04:31N 59°38' E 018°51'610.9
2018-Apr-08 04:00N 59°41' E 018°60'815.2
2018-Apr-08 03:30N 59°44' E 019°13'715.1
2018-Apr-08 03:00N 59°48' E 019°26'815.4
2018-Apr-08 02:30N 59°54' E 019°37'815.4
2018-Apr-08 02:00N 59°59' E 019°47'7 8.4
2018-Apr-08 01:11N 60°05' E 019°56'214.4
2018-Apr-08 01:01N 60°03' E 019°54'917.0
2018-Apr-08 00:28N 59°54' E 019°58'3717.0
2018-Apr-07 22:19N 59°37' E 021°03'517.4
2018-Apr-07 22:01N 59°36' E 021°13'917.4
2018-Apr-07 21:31N 59°34' E 021°30'1017.4
2018-Apr-07 20:56N 59°32' E 021°50'717.5
2018-Apr-07 20:31N 59°33' E 022°04'917.6
2018-Apr-07 20:01N 59°35' E 022°21'917.7
2018-Apr-07 19:30N 59°36' E 022°39'1017.6
2018-Apr-07 18:57N 59°38' E 022°57'817.6
2018-Apr-07 18:31N 59°40' E 023°12'917.5
2018-Apr-07 18:00N 59°42' E 023°29'917.6
2018-Apr-07 17:31N 59°46' E 023°45'917.6
2018-Apr-07 17:01N 59°50' E 024°01'917.0
2018-Apr-07 16:31N 59°55' E 024°14'814.8
2018-Apr-07 15:59N 59°58' E 024°28'714.2
2018-Apr-07 15:30N 60°02' E 024°38'815.7
2018-Apr-07 15:01N 60°05' E 024°53'510.1
2018-Apr-07 14:30N 60°10' E 024°58'0 0.2
2018-Apr-07 13:59N 60°10' E 024°58'0 0.0
2018-Apr-07 13:30N 60°10' E 024°58'0 0.0
2018-Apr-07 12:56N 60°10' E 024°58'0 0.0
2018-Apr-07 12:30N 60°10' E 024°58'0 0.0
2018-Apr-07 12:00N 60°10' E 024°58'0 0.0
2018-Apr-07 11:30N 60°10' E 024°58'0 0.0
2018-Apr-07 11:00N 60°10' E 024°58'0 0.0
2018-Apr-07 10:30N 60°10' E 024°58'0 0.0
2018-Apr-07 10:00N 60°10' E 024°58'0 0.0
2018-Apr-07 09:30N 60°10' E 024°58'0 0.0
2018-Apr-07 09:00N 60°10' E 024°58'0 0.0
2018-Apr-07 08:30N 60°10' E 024°58'0 0.0
2018-Apr-07 08:00N 60°10' E 024°58'0 0.0
2018-Apr-07 07:30N 60°10' E 024°58'0 0.1
2018-Apr-07 07:00N 60°10' E 024°58'510.2
2018-Apr-07 06:30N 60°05' E 024°58'815.9
2018-Apr-07 06:00N 59°58' E 024°50'918.5
2018-Apr-07 05:31N 59°53' E 024°34'918.5
2018-Apr-07 05:00N 59°49' E 024°18'918.5
2018-Apr-07 04:31N 59°47' E 024°00'918.5
2018-Apr-07 04:01N 59°44' E 023°43'918.5
2018-Apr-07 03:31N 59°42' E 023°25'918.5
2018-Apr-07 03:01N 59°40' E 023°07'1018.4
2018-Apr-07 02:29N 59°38' E 022°49'1218.5
2018-Apr-07 01:51N 59°35' E 022°26'618.5
2018-Apr-07 01:30N 59°34' E 022°14'918.4
2018-Apr-07 01:00N 59°32' E 021°56'918.6
2018-Apr-07 00:31N 59°33' E 021°38'918.6
2018-Apr-07 00:01N 59°34' E 021°19'918.7
2018-Apr-06 23:30N 59°36' E 021°01'3618.2
2018-Apr-06 21:32N 59°53' E 019°58'818.5
2018-Apr-06 21:06N 60°01' E 019°53'4 5.1
2018-Apr-06 20:22N 60°04' E 019°56'615.9
2018-Apr-06 20:00N 59°60' E 019°48'816.9
2018-Apr-06 19:31N 59°54' E 019°37'816.9
2018-Apr-06 19:00N 59°48' E 019°25'816.7
2018-Apr-06 18:30N 59°44' E 019°10'816.4
2018-Apr-06 18:00N 59°40' E 018°56'510.3
2018-Apr-06 17:30N 59°37' E 018°48'612.0
2018-Apr-06 17:00N 59°34' E 018°38'6 9.9
2018-Apr-06 16:26N 59°30' E 018°29'511.6
2018-Apr-06 16:01N 59°26' E 018°23'510.2
2018-Apr-06 15:30N 59°21' E 018°27'510.2
2018-Apr-06 15:00N 59°22' E 018°17'510.9
2018-Apr-06 14:30N 59°19' E 018°07'1 1.5
2018-Apr-06 14:00N 59°19' E 018°06'0 0.0
2018-Apr-06 13:30N 59°19' E 018°06'0 0.0
2018-Apr-06 13:00N 59°19' E 018°06'0 0.0
2018-Apr-06 12:30N 59°19' E 018°06'0 0.0
2018-Apr-06 12:00N 59°19' E 018°06'0 0.0
2018-Apr-06 11:30N 59°19' E 018°06'0 0.0
2018-Apr-06 11:00N 59°19' E 018°06'0 0.0
2018-Apr-06 10:30N 59°19' E 018°06'0 0.0
2018-Apr-06 10:00N 59°19' E 018°06'0 0.0
2018-Apr-06 09:30N 59°19' E 018°06'0 0.0
2018-Apr-06 09:00N 59°19' E 018°06'0 0.0
2018-Apr-06 08:30N 59°19' E 018°06'0 0.0
2018-Apr-06 08:00N 59°19' E 018°06'3 6.1
2018-Apr-06 07:30N 59°20' E 018°12'611.4
2018-Apr-06 07:00N 59°22' E 018°22'3 5.7
2018-Apr-06 06:30N 59°24' E 018°27'4 7.7
2018-Apr-06 06:00N 59°28' E 018°26'610.8
2018-Apr-06 05:29N 59°32' E 018°33'510.5
2018-Apr-06 05:00N 59°35' E 018°41'612.2
2018-Apr-06 04:30N 59°38' E 018°51'510.8
2018-Apr-06 04:00N 59°41' E 018°60'815.1
2018-Apr-06 03:30N 59°44' E 019°13'815.1
2018-Apr-06 03:00N 59°48' E 019°26'815.4
2018-Apr-06 02:30N 59°54' E 019°37'12 7.9
2018-Apr-06 00:58N 60°03' E 019°53'4616.1
2018-Apr-05 22:07N 59°37' E 021°09'217.3
2018-Apr-05 22:00N 59°36' E 021°13'917.4
2018-Apr-05 21:30N 59°34' E 021°29'1217.5
2018-Apr-05 20:49N 59°32' E 021°53'5817.5
2018-Apr-05 17:29N 59°44' E 023°45'817.4
2018-Apr-05 17:00N 59°46' E 024°01'  
Track history (hours):
 
Tides and Currents Weather Stations Pressure Air Temp Water Temp Dewpoint Dewpoint Depression Visibility Wind Speed Wind Dir Waves Ship Positions

Gabriella

Last reported at 2018-Apr-15 16:52 UTC. Time now 2018-Apr-25 12:48 UTC.
Position N 60°03' E 021°10'.
Warning: this ship's position is 9 days out of date.

Length 172 m; draft 6.5 m.

Type: Passenger vessel. MMSI: 230361000.

Date/timePositionNaut miles runAvg speedWind from/ knotsBaromVisibWave heightAir tempDewpointWater temp
2018-Apr-15 16:52N 60°03' E 021°10'617.0
2018-Apr-15 16:30N 59°57' E 021°12'918.2
2018-Apr-15 16:00N 59°49' E 021°20'714.7
2018-Apr-15 15:30N 59°42' E 021°21'917.8
2018-Apr-15 15:00N 59°35' E 021°33'1018.4
2018-Apr-15 14:27N 59°32' E 021°52'2220.1
2018-Apr-15 13:23N 59°35' E 022°34'1620.1
2018-Apr-15 12:34N 59°39' E 023°06'120.1
2018-Apr-15 12:30N 59°39' E 023°08'1020.1
2018-Apr-15 12:00N 59°41' E 023°28'1020.3
2018-Apr-15 11:30N 59°44' E 023°47'1220.1
2018-Apr-15 10:54N 59°48' E 024°10'820.6
2018-Apr-15 10:30N 59°51' E 024°25'1020.7
2018-Apr-15 10:00N 59°56' E 024°43'1019.5
2018-Apr-15 09:30N 60°03' E 024°57'713.7
2018-Apr-15 09:00N 60°10' E 024°58'0 0.2
2018-Apr-15 08:28N 60°10' E 024°58'0 0.0
2018-Apr-15 07:58N 60°10' E 024°58'0 0.0
2018-Apr-15 07:28N 60°10' E 024°58'0 0.1
2018-Apr-15 06:59N 60°10' E 024°58'510.2
2018-Apr-15 06:31N 60°05' E 024°58'816.7
2018-Apr-15 06:00N 59°58' E 024°50'918.6
2018-Apr-15 05:30N 59°53' E 024°34'918.5
2018-Apr-15 05:00N 59°49' E 024°17'918.6
2018-Apr-15 04:30N 59°47' E 023°59'918.6
2018-Apr-15 04:00N 59°44' E 023°41'918.6
2018-Apr-15 03:30N 59°42' E 023°23'918.6
2018-Apr-15 03:00N 59°40' E 023°06'918.5
2018-Apr-15 02:30N 59°38' E 022°48'918.5
2018-Apr-15 02:00N 59°36' E 022°30'918.5
2018-Apr-15 01:30N 59°34' E 022°12'918.5
2018-Apr-15 01:00N 59°32' E 021°54'918.6
2018-Apr-15 00:30N 59°33' E 021°35'918.6
2018-Apr-15 00:00N 59°35' E 021°18'1018.6
2018-Apr-14 23:27N 59°37' E 020°58'3418.2
2018-Apr-14 21:35N 59°53' E 019°59'218.4
2018-Apr-14 21:30N 59°55' E 019°58'917.5
2018-Apr-14 21:00N 60°03' E 019°54'2 4.4
2018-Apr-14 20:27N 60°05' E 019°56'714.7
2018-Apr-14 20:00N 59°60' E 019°49'917.3
2018-Apr-14 19:30N 59°54' E 019°37'917.2
2018-Apr-14 19:00N 59°47' E 019°25'816.8
2018-Apr-14 18:30N 59°44' E 019°10'816.2
2018-Apr-14 18:00N 59°40' E 018°56'510.5
2018-Apr-14 17:30N 59°36' E 018°48'611.4
2018-Apr-14 16:58N 59°33' E 018°37'5 9.8
2018-Apr-14 16:26N 59°30' E 018°29'511.6
2018-Apr-14 16:01N 59°26' E 018°23'510.1
2018-Apr-14 15:30N 59°21' E 018°26'510.2
2018-Apr-14 15:00N 59°22' E 018°16'510.6
2018-Apr-14 14:30N 59°19' E 018°07'1 1.3
2018-Apr-14 14:00N 59°19' E 018°06'0 0.0
2018-Apr-14 13:30N 59°19' E 018°06'0 0.0
2018-Apr-14 13:00N 59°19' E 018°06'0 0.0
2018-Apr-14 12:30N 59°19' E 018°06'0 0.0
2018-Apr-14 12:00N 59°19' E 018°06'0 0.0
2018-Apr-14 11:30N 59°19' E 018°06'0 0.0
2018-Apr-14 11:00N 59°19' E 018°06'0 0.2
2018-Apr-14 10:30N 59°19' E 018°06'0 0.0
2018-Apr-14 10:00N 59°19' E 018°06'0 0.0
2018-Apr-14 09:30N 59°19' E 018°06'0 0.0
2018-Apr-14 09:00N 59°19' E 018°06'0 0.0
2018-Apr-14 08:30N 59°19' E 018°06'0 0.1
2018-Apr-14 08:00N 59°19' E 018°06'3 6.2
2018-Apr-14 07:30N 59°20' E 018°12'611.4
2018-Apr-14 07:00N 59°22' E 018°22'3 5.7
2018-Apr-14 06:30N 59°24' E 018°27'4 7.6
2018-Apr-14 06:00N 59°28' E 018°26'610.5
2018-Apr-14 05:25N 59°32' E 018°34'410.4
2018-Apr-14 05:00N 59°35' E 018°41'612.1
2018-Apr-14 04:30N 59°38' E 018°51'611.2
2018-Apr-14 04:01N 59°41' E 018°60'815.9
2018-Apr-14 03:30N 59°45' E 019°14'815.8
2018-Apr-14 03:00N 59°49' E 019°27'816.1
2018-Apr-14 02:30N 59°55' E 019°38'816.2
2018-Apr-14 02:00N 60°00' E 019°50'611.6
2018-Apr-14 01:31N 60°05' E 019°56'3 5.1
2018-Apr-14 01:01N 60°03' E 019°54'916.6
2018-Apr-14 00:29N 59°55' E 019°58'816.8
2018-Apr-14 00:01N 59°49' E 020°09'917.3
2018-Apr-13 23:30N 59°45' E 020°24'2017.1
2018-Apr-13 22:19N 59°38' E 021°02'517.3
2018-Apr-13 22:00N 59°36' E 021°12'917.3
2018-Apr-13 21:30N 59°34' E 021°29'1117.3
2018-Apr-13 20:53N 59°32' E 021°49'717.3
2018-Apr-13 20:30N 59°33' E 022°02'917.4
2018-Apr-13 20:00N 59°34' E 022°19'917.4
2018-Apr-13 19:30N 59°36' E 022°36'917.4
2018-Apr-13 19:01N 59°37' E 022°53'917.4
2018-Apr-13 18:31N 59°39' E 023°10'917.3
2018-Apr-13 18:00N 59°41' E 023°27'917.3
2018-Apr-13 17:30N 59°44' E 023°43'917.3
2018-Apr-13 17:00N 59°46' E 023°59'917.3
2018-Apr-13 16:30N 59°49' E 024°16'917.3
2018-Apr-13 16:00N 59°53' E 024°32'817.3
2018-Apr-13 15:30N 59°57' E 024°46'816.4
2018-Apr-13 15:00N 60°03' E 024°57'713.4
2018-Apr-13 14:30N 60°10' E 024°58'0 0.7
2018-Apr-13 13:59N 60°10' E 024°58'0 0.0
2018-Apr-13 13:25N 60°10' E 024°58'0 0.0
2018-Apr-13 12:58N 60°10' E 024°58'0 0.0
2018-Apr-13 12:28N 60°10' E 024°58'0 0.0
2018-Apr-13 11:58N 60°10' E 024°58'0 0.0
2018-Apr-13 11:28N 60°10' E 024°58'0 0.0
2018-Apr-13 10:58N 60°10' E 024°58'0 0.0
2018-Apr-13 10:28N 60°10' E 024°58'0 0.0
2018-Apr-13 09:58N 60°10' E 024°58'0 0.0
2018-Apr-13 09:28N 60°10' E 024°58'0 0.0
2018-Apr-13 08:58N 60°10' E 024°58'0 0.0
2018-Apr-13 08:28N 60°10' E 024°58'0 0.0
2018-Apr-13 07:58N 60°10' E 024°58'0 0.0
2018-Apr-13 07:28N 60°10' E 024°58'0 0.1
2018-Apr-13 07:00N 60°10' E 024°58'611.7
2018-Apr-13 06:30N 60°04' E 024°58'816.8
2018-Apr-13 06:00N 59°57' E 024°48'918.3
2018-Apr-13 05:30N 59°53' E 024°32'918.4
2018-Apr-13 05:00N 59°49' E 024°15'1718.6
2018-Apr-13 04:06N 59°44' E 023°43'1318.6
2018-Apr-13 03:26N 59°41' E 023°19'818.6
2018-Apr-13 03:00N 59°39' E 023°04'918.6
2018-Apr-13 02:30N 59°37' E 022°46'918.6
2018-Apr-13 02:00N 59°34' E 022°28'918.6
2018-Apr-13 01:30N 59°31' E 022°11'918.4
2018-Apr-13 01:00N 59°32' E 021°53'918.5
2018-Apr-13 00:30N 59°33' E 021°35'918.5
2018-Apr-13 00:00N 59°35' E 021°17'1118.5
2018-Apr-12 23:26N 59°37' E 020°56'3318.1
2018-Apr-12 21:38N 59°52' E 019°60'918.3
2018-Apr-12 21:07N 60°01' E 019°54'315.9
2018-Apr-12 20:57N 60°04' E 019°55'1 2.3
2018-Apr-12 20:21N 60°05' E 019°56'412.8
2018-Apr-12 20:01N 60°01' E 019°52'1019.3
2018-Apr-12 19:31N 59°55' E 019°38'1019.3
2018-Apr-12 19:01N 59°48' E 019°25'918.7
2018-Apr-12 18:31N 59°43' E 019°08'815.9
2018-Apr-12 18:00N 59°39' E 018°55'611.2
2018-Apr-12 17:30N 59°36' E 018°46'711.0
2018-Apr-12 16:51N 59°32' E 018°34'4 9.9
2018-Apr-12 16:29N 59°30' E 018°28'510.7
2018-Apr-12 16:00N 59°25' E 018°24'3 6.7
2018-Apr-12 15:30N 59°22' E 018°24'510.3
2018-Apr-12 15:00N 59°21' E 018°14'5 9.4
2018-Apr-12 14:31N 59°19' E 018°06'0 0.0
2018-Apr-12 14:00N 59°19' E 018°06'0 0.0
2018-Apr-12 13:30N 59°19' E 018°06'0 0.0
2018-Apr-12 13:00N 59°19' E 018°06'0 0.0
2018-Apr-12 12:30N 59°19' E 018°06'0 0.0
2018-Apr-12 12:00N 59°19' E 018°06'0 0.0
2018-Apr-12 11:30N 59°19' E 018°06'0 0.0
2018-Apr-12 11:00N 59°19' E 018°06'0 0.0
2018-Apr-12 10:30N 59°19' E 018°06'0 0.0
2018-Apr-12 10:00N 59°19' E 018°06'0 0.0
2018-Apr-12 09:31N 59°19' E 018°06'0 0.0
2018-Apr-12 09:00N 59°19' E 018°06'0 0.0
2018-Apr-12 08:30N 59°19' E 018°06'0 0.0
2018-Apr-12 08:00N 59°19' E 018°06'3 5.5
2018-Apr-12 07:31N 59°20' E 018°11'611.5
2018-Apr-12 07:00N 59°23' E 018°21'3 6.3
2018-Apr-12 06:30N 59°24' E 018°27'4 8.5
2018-Apr-12 06:00N 59°28' E 018°26'610.5
2018-Apr-12 05:25N 59°32' E 018°34'410.5
2018-Apr-12 05:01N 59°35' E 018°41'612.2
2018-Apr-12 04:30N 59°38' E 018°52'510.8
2018-Apr-12 04:00N 59°41' E 018°60'815.4
2018-Apr-12 03:29N 59°45' E 019°14'715.2
2018-Apr-12 03:00N 59°50' E 019°25'815.6
2018-Apr-12 02:30N 59°55' E 019°37'815.5
2018-Apr-12 02:00N 59°60' E 019°49'713.3
2018-Apr-12 01:30N 60°05' E 019°56'3 6.0
2018-Apr-12 01:00N 60°03' E 019°53'1017.1
2018-Apr-12 00:25N 59°53' E 019°59'3617.2
2018-Apr-11 22:20N 59°37' E 021°03'617.5
2018-Apr-11 22:00N 59°36' E 021°14'917.5
2018-Apr-11 21:30N 59°34' E 021°31'1117.5
2018-Apr-11 20:53N 59°32' E 021°52'717.6
2018-Apr-11 20:30N 59°33' E 022°05'917.6
2018-Apr-11 20:00N 59°35' E 022°22'917.7
2018-Apr-11 19:31N 59°36' E 022°39'917.6
2018-Apr-11 19:00N 59°38' E 022°56'1017.6
2018-Apr-11 18:28N 59°40' E 023°15'817.6
2018-Apr-11 18:00N 59°42' E 023°30'917.5
2018-Apr-11 17:30N 59°44' E 023°47'917.5
2018-Apr-11 17:00N 59°47' E 024°03'917.5
2018-Apr-11 16:30N 59°49' E 024°20'917.5
2018-Apr-11 16:00N 59°54' E 024°35'917.5
2018-Apr-11 15:31N 59°58' E 024°50'816.7
2018-Apr-11 15:00N 60°05' E 024°58'5 9.2
2018-Apr-11 14:31N 60°10' E 024°58'0 0.0
2018-Apr-11 13:58N 60°10' E 024°58'0 0.0
2018-Apr-11 13:28N 60°10' E 024°58'0 0.0
2018-Apr-11 12:58N 60°10' E 024°58'0 0.0
2018-Apr-11 12:28N 60°10' E 024°58'0 0.0
2018-Apr-11 11:58N 60°10' E 024°58'0 0.0
2018-Apr-11 11:28N 60°10' E 024°58'0 0.0
2018-Apr-11 10:58N 60°10' E 024°58'0 0.0
2018-Apr-11 10:28N 60°10' E 024°58'0 0.0
2018-Apr-11 09:55N 60°10' E 024°58'0 0.0
2018-Apr-11 09:28N 60°10' E 024°58'0 0.0
2018-Apr-11 08:58N 60°10' E 024°58'0 0.0
2018-Apr-11 08:28N 60°10' E 024°58'0 0.0
2018-Apr-11 07:58N 60°10' E 024°58'0 0.0
2018-Apr-11 07:28N 60°10' E 024°58'0 0.1
2018-Apr-11 07:00N 60°10' E 024°58'4 8.5
2018-Apr-11 06:31N 60°06' E 024°55'816.2
2018-Apr-11 06:01N 60°03' E 024°40'815.3
2018-Apr-11 05:30N 59°58' E 024°29'815.9
2018-Apr-11 05:00N 59°55' E 024°14'918.1
2018-Apr-11 04:30N 59°50' E 023°60'918.7
2018-Apr-11 04:00N 59°46' E 023°43'918.7
2018-Apr-11 03:30N 59°42' E 023°25'918.7
2018-Apr-11 03:00N 59°40' E 023°07'918.7
2018-Apr-11 02:30N 59°38' E 022°49'918.7
2018-Apr-11 02:00N 59°36' E 022°31'918.7
2018-Apr-11 01:30N 59°34' E 022°13'918.7
2018-Apr-11 01:00N 59°32' E 021°55'918.9
2018-Apr-11 00:30N 59°33' E 021°37'918.9
2018-Apr-11 00:00N 59°35' E 021°18'1019.0
2018-Apr-10 23:27N 59°37' E 020°58'3318.3
2018-Apr-10 21:38N 59°52' E 019°60'218.6
2018-Apr-10 21:30N 59°54' E 019°58'917.8
2018-Apr-10 21:00N 60°03' E 019°54'2 4.9
2018-Apr-10 20:30N 60°06' E 019°56'713.2
2018-Apr-10 20:00N 59°60' E 019°49'917.2
2018-Apr-10 19:30N 59°54' E 019°37'917.2
2018-Apr-10 19:00N 59°47' E 019°25'917.0
2018-Apr-10 18:30N 59°44' E 019°10'816.2
2018-Apr-10 18:00N 59°40' E 018°56'510.9
2018-Apr-10 17:30N 59°36' E 018°47'611.7
2018-Apr-10 16:59N 59°33' E 018°37'5 9.9
2018-Apr-10 16:28N 59°30' E 018°29'511.6
2018-Apr-10 16:00N 59°26' E 018°23'4 8.8
2018-Apr-10 15:30N 59°21' E 018°25'510.2
2018-Apr-10 15:00N 59°21' E 018°15'510.2
2018-Apr-10 14:30N 59°19' E 018°07'0 0.7
2018-Apr-10 13:59N 59°19' E 018°06'0 0.0
2018-Apr-10 13:26N 59°19' E 018°06'0 0.0
2018-Apr-10 12:59N 59°19' E 018°06'0 0.0
2018-Apr-10 12:29N 59°19' E 018°06'0 0.0
2018-Apr-10 11:59N 59°19' E 018°06'0 0.0
2018-Apr-10 11:29N 59°19' E 018°06'0 0.0
2018-Apr-10 10:59N 59°19' E 018°06'0 0.0
2018-Apr-10 10:29N 59°19' E 018°06'0 0.0
2018-Apr-10 09:59N 59°19' E 018°06'0 0.0
2018-Apr-10 09:29N 59°19' E 018°06'0 0.0
2018-Apr-10 08:59N 59°19' E 018°06'0 0.0
2018-Apr-10 08:29N 59°19' E 018°06'0 0.0
2018-Apr-10 08:00N 59°19' E 018°06'3 5.6
2018-Apr-10 07:30N 59°20' E 018°11'611.4
2018-Apr-10 07:00N 59°23' E 018°21'3 6.2
2018-Apr-10 06:30N 59°24' E 018°27'4 8.0
2018-Apr-10 06:00N 59°28' E 018°26'610.5
2018-Apr-10 05:24N 59°32' E 018°34'410.6
2018-Apr-10 05:00N 59°35' E 018°41'612.1
2018-Apr-10 04:30N 59°38' E 018°51'510.9
2018-Apr-10 04:00N 59°41' E 018°60'815.2
2018-Apr-10 03:31N 59°44' E 019°13'815.3
2018-Apr-10 03:01N 59°48' E 019°27'815.5
2018-Apr-10 02:30N 59°54' E 019°37'1410.3
2018-Apr-10 01:08N 60°04' E 019°56'215.5
2018-Apr-10 01:00N 60°03' E 019°53'4316.1
2018-Apr-09 22:18N 59°37' E 021°03'517.4
2018-Apr-09 22:01N 59°36' E 021°13'917.4
2018-Apr-09 21:30N 59°34' E 021°30'1317.4
2018-Apr-09 20:47N 59°32' E 021°54'3317.6
2018-Apr-09 18:55N 59°38' E 022°58'717.6
2018-Apr-09 18:30N 59°40' E 023°12'917.5
2018-Apr-09 18:01N 59°42' E 023°29'917.4
2018-Apr-09 17:30N 59°46' E 023°44'917.4
2018-Apr-09 17:00N 59°50' E 023°60'816.9
2018-Apr-09 16:30N 59°55' E 024°13'815.2
2018-Apr-09 15:58N 59°58' E 024°28'714.5
2018-Apr-09 15:31N 60°02' E 024°38'815.6
2018-Apr-09 15:00N 60°05' E 024°53'510.3
2018-Apr-09 14:31N 60°10' E 024°58'0 0.3
2018-Apr-09 14:00N 60°10' E 024°58'0 0.0
2018-Apr-09 13:30N 60°10' E 024°58'0 0.0
2018-Apr-09 13:00N 60°10' E 024°58'0 0.0
2018-Apr-09 12:30N 60°10' E 024°58'0 0.0
2018-Apr-09 12:00N 60°10' E 024°58'0 0.0
2018-Apr-09 11:30N 60°10' E 024°58'0 0.0
2018-Apr-09 10:57N 60°10' E 024°58'0 0.0
2018-Apr-09 10:30N 60°10' E 024°58'0 0.0
2018-Apr-09 10:00N 60°10' E 024°58'0 0.0
2018-Apr-09 09:30N 60°10' E 024°58'0 0.0
2018-Apr-09 09:00N 60°10' E 024°58'0 0.0
2018-Apr-09 08:27N 60°10' E 024°58'0 0.0
2018-Apr-09 08:00N 60°10' E 024°58'0 0.0
2018-Apr-09 07:30N 60°10' E 024°58'0 0.0
2018-Apr-09 07:00N 60°10' E 024°58'2 4.7
2018-Apr-09 06:31N 60°08' E 024°59'815.0
2018-Apr-09 06:01N 60°05' E 024°45'916.7
2018-Apr-09 05:29N 59°59' E 024°32'714.2
2018-Apr-09 05:00N 59°56' E 024°20'917.9
2018-Apr-09 04:30N 59°51' E 024°05'918.8
2018-Apr-09 04:00N 59°47' E 023°48'918.8
2018-Apr-09 03:30N 59°43' E 023°31'918.9
2018-Apr-09 03:00N 59°41' E 023°13'1118.9
2018-Apr-09 02:27N 59°38' E 022°53'818.9
2018-Apr-09 02:00N 59°37' E 022°37'918.9
2018-Apr-09 01:30N 59°34' E 022°18'1019.0
2018-Apr-09 01:00N 59°32' E 022°00'918.9
2018-Apr-09 00:31N 59°32' E 021°42'1019.0
2018-Apr-09 00:00N 59°34' E 021°23'1019.0
2018-Apr-08 23:30N 59°36' E 021°05'3818.5
2018-Apr-08 21:28N 59°54' E 019°58'918.6
2018-Apr-08 20:59N 60°02' E 019°53'3 6.7
2018-Apr-08 20:28N 60°06' E 019°55'614.0
2018-Apr-08 20:00N 59°60' E 019°49'917.5
2018-Apr-08 19:30N 59°54' E 019°37'917.2
2018-Apr-08 19:01N 59°47' E 019°25'817.0
2018-Apr-08 18:30N 59°44' E 019°10'816.2
2018-Apr-08 18:00N 59°40' E 018°56'510.8
2018-Apr-08 17:30N 59°36' E 018°47'811.1
2018-Apr-08 16:47N 59°32' E 018°34'4 9.9
2018-Apr-08 16:25N 59°30' E 018°28'511.5
2018-Apr-08 16:00N 59°26' E 018°23'5 9.2
2018-Apr-08 15:30N 59°21' E 018°26'510.0
2018-Apr-08 15:01N 59°22' E 018°16'510.5
2018-Apr-08 14:30N 59°19' E 018°07'1 1.0
2018-Apr-08 14:00N 59°19' E 018°06'0 0.0
2018-Apr-08 13:27N 59°19' E 018°06'0 0.0
2018-Apr-08 13:00N 59°19' E 018°06'0 0.0
2018-Apr-08 12:27N 59°19' E 018°06'0 0.0
2018-Apr-08 12:00N 59°19' E 018°06'0 0.0
2018-Apr-08 11:30N 59°19' E 018°06'0 0.0
2018-Apr-08 11:00N 59°19' E 018°06'0 0.0
2018-Apr-08 10:30N 59°19' E 018°06'0 0.0
2018-Apr-08 10:00N 59°19' E 018°06'0 0.0
2018-Apr-08 09:30N 59°19' E 018°06'0 0.0
2018-Apr-08 09:00N 59°19' E 018°06'0 0.0
2018-Apr-08 08:27N 59°19' E 018°06'0 0.0
2018-Apr-08 08:00N 59°19' E 018°06'3 6.2
2018-Apr-08 07:30N 59°20' E 018°12'611.4
2018-Apr-08 07:00N 59°22' E 018°22'3 5.7
2018-Apr-08 06:31N 59°24' E 018°27'4 7.6
2018-Apr-08 06:00N 59°28' E 018°26'610.7
2018-Apr-08 05:29N 59°32' E 018°33'510.3
2018-Apr-08 05:00N 59°35' E 018°41'612.0
2018-Apr-08 04:31N 59°38' E 018°51'610.9
2018-Apr-08 04:00N 59°41' E 018°60'815.2
2018-Apr-08 03:30N 59°44' E 019°13'715.1
2018-Apr-08 03:00N 59°48' E 019°26'815.4
2018-Apr-08 02:30N 59°54' E 019°37'815.4
2018-Apr-08 02:00N 59°59' E 019°47'7 8.4
2018-Apr-08 01:11N 60°05' E 019°56'214.4
2018-Apr-08 01:01N 60°03' E 019°54'917.0
2018-Apr-08 00:28N 59°54' E 019°58'3717.0
2018-Apr-07 22:19N 59°37' E 021°03'517.4
2018-Apr-07 22:01N 59°36' E 021°13'917.4
2018-Apr-07 21:31N 59°34' E 021°30'1017.4
2018-Apr-07 20:56N 59°32' E 021°50'717.5
2018-Apr-07 20:31N 59°33' E 022°04'917.6
2018-Apr-07 20:01N 59°35' E 022°21'917.7
2018-Apr-07 19:30N 59°36' E 022°39'1017.6
2018-Apr-07 18:57N 59°38' E 022°57'817.6
2018-Apr-07 18:31N 59°40' E 023°12'917.5
2018-Apr-07 18:00N 59°42' E 023°29'917.6
2018-Apr-07 17:31N 59°46' E 023°45'917.6
2018-Apr-07 17:01N 59°50' E 024°01'917.0
2018-Apr-07 16:31N 59°55' E 024°14'814.8
2018-Apr-07 15:59N 59°58' E 024°28'714.2
2018-Apr-07 15:30N 60°02' E 024°38'815.7
2018-Apr-07 15:01N 60°05' E 024°53'510.1
2018-Apr-07 14:30N 60°10' E 024°58'0 0.2
2018-Apr-07 13:59N 60°10' E 024°58'0 0.0
2018-Apr-07 13:30N 60°10' E 024°58'0 0.0
2018-Apr-07 12:56N 60°10' E 024°58'0 0.0
2018-Apr-07 12:30N 60°10' E 024°58'0 0.0
2018-Apr-07 12:00N 60°10' E 024°58'0 0.0
2018-Apr-07 11:30N 60°10' E 024°58'0 0.0
2018-Apr-07 11:00N 60°10' E 024°58'0 0.0
2018-Apr-07 10:30N 60°10' E 024°58'0 0.0
2018-Apr-07 10:00N 60°10' E 024°58'0 0.0
2018-Apr-07 09:30N 60°10' E 024°58'0 0.0
2018-Apr-07 09:00N 60°10' E 024°58'0 0.0
2018-Apr-07 08:30N 60°10' E 024°58'0 0.0
2018-Apr-07 08:00N 60°10' E 024°58'0 0.0
2018-Apr-07 07:30N 60°10' E 024°58'0 0.1
2018-Apr-07 07:00N 60°10' E 024°58'510.2
2018-Apr-07 06:30N 60°05' E 024°58'815.9
2018-Apr-07 06:00N 59°58' E 024°50'918.5
2018-Apr-07 05:31N 59°53' E 024°34'918.5
2018-Apr-07 05:00N 59°49' E 024°18'918.5
2018-Apr-07 04:31N 59°47' E 024°00'918.5
2018-Apr-07 04:01N 59°44' E 023°43'918.5
2018-Apr-07 03:31N 59°42' E 023°25'918.5
2018-Apr-07 03:01N 59°40' E 023°07'1018.4
2018-Apr-07 02:29N 59°38' E 022°49'1218.5
2018-Apr-07 01:51N 59°35' E 022°26'618.5
2018-Apr-07 01:30N 59°34' E 022°14'918.4
2018-Apr-07 01:00N 59°32' E 021°56'918.6
2018-Apr-07 00:31N 59°33' E 021°38'918.6
2018-Apr-07 00:01N 59°34' E 021°19'918.7
2018-Apr-06 23:30N 59°36' E 021°01'3618.2
2018-Apr-06 21:32N 59°53' E 019°58'818.5
2018-Apr-06 21:06N 60°01' E 019°53'4 5.1
2018-Apr-06 20:22N 60°04' E 019°56'615.9
2018-Apr-06 20:00N 59°60' E 019°48'816.9
2018-Apr-06 19:31N 59°54' E 019°37'816.9
2018-Apr-06 19:00N 59°48' E 019°25'816.7
2018-Apr-06 18:30N 59°44' E 019°10'816.4
2018-Apr-06 18:00N 59°40' E 018°56'510.3
2018-Apr-06 17:30N 59°37' E 018°48'612.0
2018-Apr-06 17:00N 59°34' E 018°38'6 9.9
2018-Apr-06 16:26N 59°30' E 018°29'511.6
2018-Apr-06 16:01N 59°26' E 018°23'510.2
2018-Apr-06 15:30N 59°21' E 018°27'510.2
2018-Apr-06 15:00N 59°22' E 018°17'510.9
2018-Apr-06 14:30N 59°19' E 018°07'1 1.5
2018-Apr-06 14:00N 59°19' E 018°06'0 0.0
2018-Apr-06 13:30N 59°19' E 018°06'0 0.0
2018-Apr-06 13:00N 59°19' E 018°06'0 0.0
2018-Apr-06 12:30N 59°19' E 018°06'0 0.0
2018-Apr-06 12:00N 59°19' E 018°06'0 0.0
2018-Apr-06 11:30N 59°19' E 018°06'0 0.0
2018-Apr-06 11:00N 59°19' E 018°06'0 0.0
2018-Apr-06 10:30N 59°19' E 018°06'0 0.0
2018-Apr-06 10:00N 59°19' E 018°06'0 0.0
2018-Apr-06 09:30N 59°19' E 018°06'0 0.0
2018-Apr-06 09:00N 59°19' E 018°06'0 0.0
2018-Apr-06 08:30N 59°19' E 018°06'0 0.0
2018-Apr-06 08:00N 59°19' E 018°06'3 6.1
2018-Apr-06 07:30N 59°20' E 018°12'611.4
2018-Apr-06 07:00N 59°22' E 018°22'3 5.7
2018-Apr-06 06:30N 59°24' E 018°27'4 7.7
2018-Apr-06 06:00N 59°28' E 018°26'610.8
2018-Apr-06 05:29N 59°32' E 018°33'510.5
2018-Apr-06 05:00N 59°35' E 018°41'612.2
2018-Apr-06 04:30N 59°38' E 018°51'510.8
2018-Apr-06 04:00N 59°41' E 018°60'815.1
2018-Apr-06 03:30N 59°44' E 019°13'815.1
2018-Apr-06 03:00N 59°48' E 019°26'815.4
2018-Apr-06 02:30N 59°54' E 019°37'12 7.9
2018-Apr-06 00:58N 60°03' E 019°53'4616.1
2018-Apr-05 22:07N 59°37' E 021°09'217.3
2018-Apr-05 22:00N 59°36' E 021°13'917.4
2018-Apr-05 21:30N 59°34' E 021°29'1217.5
2018-Apr-05 20:49N 59°32' E 021°53'5817.5
2018-Apr-05 17:29N 59°44' E 023°45'817.4
2018-Apr-05 17:00N 59°46' E 024°01'  

Dump ship's entire track history